Chokoloskee, Florida
Current Conditions -  °F | °C
As of 1:15 PM on Wednesday 28 Jan 2015 (Local Time) from KMKY Reporting Station
Clear Clear  
Wind Chill: 66°   Ceiling: Unl
Heat Index: 66°   Visibility: 10mi
Dew Point: 36°   Wind: 8mph
Humidity: 32%   Direction: 20°NNE
Pressure: 30.15"   Gusts: NA
Location:  25.81°N, 81.36°W
Report Text: KMKY 281815Z AUTO 02007KT 10SM CLR 19/02 A3015 RMK AO1
Loading
Personal Weather Stations






























Interactive Weather Map New forecast layout! Learn more

10-Day Weather Forecast

Advertisements
Track Severe Weather on mobile